Latest Coastal Weather Observations for Lockhart River

IDQ60701

Issued at 2:32 pm EST Sunday 26 June 2016 (issued every 10 minutes, with the page automatically refreshed every 10 minutes)

About coastal observations | Map of coastal stations | Coastal observations for QLD | Marine services | Other Formats
Station Details ID: 028008 Name: LOCKHART RIVER AIRPORT Lat: -12.79 Lon: 143.30 Height: 18.5 m
Data from the previous 72 hours. | See also: Recent months at Lockhart River
Date/Time
EST
Temp
°C
Wind Pressure Rain since
9am
mm
Weather Cloud Vis
km
Sea
Height
m
Swell
Dir  Spd
kts
Gust
kts
hPa Trend Height
m
Period
s
Dir
26/02:00pm 28.5 SE 15 20 1011.3 - 0.0 - - - - - - -
26/01:30pm 28.4 ESE 12 17 1011.5 - 0.0 - Partly cloudy - - - - -
26/01:00pm 27.4 ESE 12 20 1011.9 - 0.0 - Partly cloudy - - - - -
26/12:30pm 27.9 ESE 13 19 1012.2 - 0.0 - Partly cloudy - - - - -
26/12:00pm 27.8 ESE 12 18 1012.4 - 0.0 - Partly cloudy - - - - -
26/11:30am 28.2 ESE 14 20 1012.8 - 0.0 - Partly cloudy - - - - -
26/11:00am 28.3 ESE 10 15 1013.1 - 0.0 - Partly cloudy - - - - -
26/10:30am 27.7 ESE 10 15 1013.3 - 0.0 - Partly cloudy - - - - -
26/10:00am 27.1 ESE 10 18 1013.6 - 0.0 - Partly cloudy - - - - -
26/09:30am 26.9 ESE 10 16 1013.8 - 0.0 - Partly cloudy - - - - -
26/09:00am 26.5 ESE 9 13 1013.7 - 0.0 - Partly cloudy - - - - -
26/08:30am 25.9 SE 6 8 1013.9 - 0.0 - - - - - - -
26/08:00am 24.8 SE 4 7 1013.5 - 0.0 - - - - - - -
26/07:30am 23.9 SE 5 7 1013.2 - 0.0 - - - - - - -
26/07:00am 23.5 SE 5 6 1013.1 - 0.0 - Partly cloudy - - - - -
26/06:30am 23.9 SE 6 8 1013.0 - 0.0 - Partly cloudy - - - - -
26/06:00am 24.8 ESE 7 11 1012.8 - 0.0 - Partly cloudy - - - - -
26/05:30am 25.1 ESE 9 14 1012.8 - 0.0 - Partly cloudy - - - - -
26/05:00am 24.7 ESE 7 10 1012.6 - 0.0 - - - - - - -
26/04:30am 24.3 SE 7 8 1012.5 - 0.0 - Partly cloudy - - - - -
26/04:00am 24.9 SE 8 11 1012.4 - 0.0 - Partly cloudy - - - - -
26/03:30am 25.3 ESE 10 13 1012.3 - 0.0 - Partly cloudy - - - - -
26/03:00am 25.1 ESE 9 13 1012.2 - 0.0 - Partly cloudy - - - - -
26/02:30am 25.2 SE 10 13 1012.1 - 0.0 - - - - - - -
26/02:00am 25.3 ESE 10 16 1012.4 - 0.0 - Partly cloudy - - - - -
26/01:30am 25.2 SE 10 16 1012.6 - 0.0 - Partly cloudy - - - - -
26/01:00am 25.2 ESE 10 15 1012.9 - 0.0 - - - - - - -
26/12:30am 25.2 ESE 10 15 1013.2 - 0.0 - Partly cloudy - - - - -
26/12:00am 25.2 ESE 10 13 1013.1 - 0.0 - Partly cloudy - - - - -
 
Date/Time
EST
Temp
°C
Wind Pressure Rain since
9am
mm
Weather Cloud Vis
km
Sea
Height
m
Swell
Dir  Spd
kts
Gust
kts
hPa Trend Height
m
Period
s
Dir
25/11:30pm 24.9 SE 9 13 1013.3 - 0.0 - - - - - - -
25/11:00pm 25.2 ESE 9 12 1013.4 - 0.0 - Partly cloudy - - - - -
25/10:30pm 25.4 ESE 11 15 1013.6 - 0.0 - - - - - - -
25/10:00pm 25.3 ESE 9 14 1013.5 - 0.0 - - - - - - -
25/09:30pm 25.3 ESE 10 15 1013.5 - 0.0 - - - - - - -
25/09:00pm 25.3 ESE 9 13 1013.4 - 0.0 - Partly cloudy - - - - -
25/08:30pm 25.3 ESE 9 13 1013.2 - 0.0 - Partly cloudy - - - - -
25/08:00pm 25.2 ESE 8 14 1013.0 - 0.0 - Partly cloudy - - - - -
25/07:30pm 25.2 ESE 8 11 1012.7 - 0.0 - Partly cloudy - - - - -
25/07:00pm 25.4 ESE 8 11 1012.5 - 0.0 - Partly cloudy - - - - -
25/06:30pm 25.3 ESE 8 12 1012.2 - 0.0 - Partly cloudy - - - - -
25/06:00pm 25.7 SE 8 13 1012.1 - 0.0 - Partly cloudy - - - - -
25/05:30pm 26.2 ESE 9 13 1012.1 - 0.0 - Partly cloudy - - - - -
25/05:00pm 26.6 ESE 11 18 1012.1 - 0.0 - Partly cloudy - - - - -
25/04:30pm 26.8 ESE 11 16 1011.9 - 0.0 - Partly cloudy - - - - -
25/04:00pm 27.1 SE 14 18 1011.7 - 0.0 - Partly cloudy - - - - -
25/03:30pm 27.3 SE 13 17 1011.8 - 0.0 - Partly cloudy - - - - -
25/03:00pm 27.7 SE 12 19 1011.8 - 0.0 - Partly cloudy - - - - -
25/02:30pm 28.2 ESE 11 17 1012.0 - 0.0 - Partly cloudy - - - - -
25/02:00pm 27.8 ESE 12 16 1012.2 - 0.0 - Partly cloudy - - - - -
25/01:30pm 28.3 ESE 12 18 1012.5 - 0.0 - Partly cloudy - - - - -
25/01:00pm 27.9 ESE 14 19 1013.0 - 0.0 - Partly cloudy - - - - -
25/12:30pm 28.0 ESE 13 22 1013.3 - 0.0 - Partly cloudy - - - - -
25/12:00pm 28.3 ESE 14 21 1013.5 - 0.0 - Partly cloudy - - - - -
25/11:30am 27.9 ESE 13 19 1013.8 - 0.0 - Partly cloudy - - - - -
25/11:00am 27.9 SE 15 19 1014.1 - 0.0 - Partly cloudy - - - - -
25/10:30am 27.6 ESE 14 21 1014.3 - 0.0 - Partly cloudy - - - - -
25/10:00am 27.4 ESE 12 16 1014.2 - 0.0 - Partly cloudy - - - - -
25/09:30am 26.7 ESE 12 17 1014.3 - 0.0 - Partly cloudy - - - - -
25/09:00am 26.5 ESE 10 16 1013.8 - 0.4 - Partly cloudy - - - - -
25/08:30am 26.0 ESE 9 14 1013.6 - 0.4 - Partly cloudy - - - - -
25/08:00am 25.9 ESE 9 13 1013.3 - 0.4 - Partly cloudy - - - - -
25/07:30am 25.0 SE 7 11 1013.1 - 0.4 - Partly cloudy - - - - -
25/06:30am 24.6 SE 5 9 1012.6 - 0.4 - Partly cloudy - - - - -
25/06:00am 24.0 SE 5 7 1012.2 - 0.4 - Partly cloudy - - - - -
25/05:30am 24.2 SE 6 8 1012.1 - 0.4 - - - - - - -
25/05:00am 24.8 ESE 7 9 1012.1 - 0.4 - Partly cloudy - - - - -
25/04:30am 24.2 SE 4 9 1012.1 - 0.4 - Partly cloudy - - - - -
25/04:00am 24.2 ESE 4 7 1012.1 - 0.4 - Partly cloudy - - - - -
25/03:00am 23.3 CALM 0 - 1012.0 - 0.4 - - - - - - -
25/02:30am 22.8 CALM 0 0 1012.2 - 0.4 - Partly cloudy - - - - -
25/02:00am 23.0 CALM 0 0 1012.3 - 0.4 - Partly cloudy - - - - -
25/01:30am 23.2 SE 3 4 1012.6 - 0.4 - Partly cloudy - - - - -
25/01:00am 23.1 CALM 0 0 1012.6 - 0.4 - - - - - - -
25/12:30am 23.1 S 3 4 1012.5 - 0.4 - - - - - - -
25/12:00am 23.4 S 5 5 1012.3 - 0.4 - - - - - - -
 
Date/Time
EST
Temp
°C
Wind Pressure Rain since
9am
mm
Weather Cloud Vis
km
Sea
Height
m
Swell
Dir  Spd
kts
Gust
kts
hPa Trend Height
m
Period
s
Dir
24/11:30pm 23.8 SE 4 6 1012.8 - 0.4 - Partly cloudy - - - - -
24/10:30pm 23.6 S 2 4 1013.2 - 0.4 - - - - - - -
24/10:00pm 23.9 CALM 0 0 1013.2 - 0.4 - Partly cloudy - - - - -
24/09:00pm 24.0 CALM 0 0 1013.1 - 0.4 - Partly cloudy - - - - -
24/08:30pm 24.5 CALM 0 1 1013.0 - 0.4 - Partly cloudy - - - - -
24/08:00pm 24.8 SSE 5 6 1012.6 - 0.4 - Partly cloudy - - - - -
24/07:30pm 25.2 SE 6 8 1012.4 - 0.4 - Partly cloudy - - - - -
24/07:00pm 25.5 SE 5 7 1012.2 - 0.4 - Partly cloudy - - - - -
24/06:30pm 25.8 SE 6 8 1012.0 - 0.4 - Partly cloudy - - - - -
24/06:00pm 26.3 SE 8 11 1011.7 - 0.4 - Partly cloudy - - - - -
24/05:30pm 26.8 SE 7 9 1011.7 - 0.4 - Partly cloudy - - - - -
24/05:00pm 27.1 ESE 7 10 1011.6 - 0.4 - Cloudy - - - - -
24/04:30pm 27.5 SE 11 17 1011.3 - 0.4 - Partly cloudy - - - - -
24/04:00pm 27.5 SE 11 15 1011.4 - 0.4 - Partly cloudy - - - - -
24/03:00pm 27.5 SE 8 - 1011.3 - 0.2 - - - - - - -
24/02:30pm 27.7 SE 11 17 1011.4 - 0.2 - Partly cloudy - - - - -
24/02:00pm 26.8 SE 9 14 1011.7 - 0.2 - Partly cloudy - - - - -
24/01:30pm 25.8 ESE 11 17 1012.0 - 0.2 - Partly cloudy - - - - -
24/01:00pm 28.3 SE 11 15 1012.1 - 0.0 - Partly cloudy - - - - -
24/12:30pm 28.4 ESE 11 15 1012.5 - 0.0 - Partly cloudy - - - - -
24/12:00pm 28.7 ESE 12 - 1012.8 - - - - - - - - -
24/09:00am 26.0 SE 7 - 1012.8 - 3.0 - - - - - - -
24/08:30am 25.6 ESE 8 13 1012.8 - 3.2 - Partly cloudy - - - - -
24/06:00am 24.5 SSE 3 - 1010.9 - - - - - - - - -
24/05:30am 24.6 S 4 6 1011.0 - 3.2 - Partly cloudy - - - - -
24/05:00am 24.9 SSE 4 7 1010.8 - 3.2 - Partly cloudy - - - - -
24/04:30am 24.7 SE 3 4 1010.5 - 3.2 - Partly cloudy - - - - -
24/04:00am 24.8 SSE 3 4 1010.5 - 3.2 - Partly cloudy - - - - -
24/03:30am 24.9 SSE 5 6 1010.6 - 3.2 - Partly cloudy - - - - -
24/03:00am 24.9 SSE 5 - 1010.6 - 3.0 - - - - - - -
24/12:00am 25.2 SSE 5 - 1011.5 - - - - - - - - -
 
Date/Time
EST
Temp
°C
Wind Pressure Rain since
9am
mm
Weather Cloud Vis
km
Sea
Height
m
Swell
Dir  Spd
kts
Gust
kts
hPa Trend Height
m
Period
s
Dir
23/10:00pm 25.7 SE 7 9 1011.9 - 3.2 - Partly cloudy - - - - -
23/09:30pm 25.8 SE 8 11 1011.7 - 3.2 - Partly cloudy - - - - -
23/09:00pm 25.8 SE 7 - 1011.3 - 3.0 - - - - - - -
23/06:30pm 25.9 ESE 7 9 1010.3 - 3.2 - Partly cloudy - - - - -
23/06:00pm 25.8 ESE 7 - 1010.0 - - - - - - - - -
23/03:00pm 27.3 ESE 12 - 1009.1 - 0.0 - - - - - - -

Other Formats:

Comma delimited format used in spreadsheet applications
http://www.bom.gov.au/fwo/IDQ60701/IDQ60701.94186.axf

JavaScript Object Notation format (JSON) in row-major order
http://www.bom.gov.au/fwo/IDQ60701/IDQ60701.94186.json